sensor_id;sensor_type;location;lat;lon;timestamp;pressure;altitude;pressure_sealevel;temperature;humidity
24422;BME280;12600;53.326;-6.298;2023-06-22T00:01:56;101461.59;;;21.14;44.84
24422;BME280;12600;53.326;-6.298;2023-06-22T00:04:45;101450.75;;;21.09;45.11
24422;BME280;12600;53.326;-6.298;2023-06-22T00:07:35;101464.22;;;21.07;45.08
24422;BME280;12600;53.326;-6.298;2023-06-22T00:10:24;101461.34;;;21.04;45.41
24422;BME280;12600;53.326;-6.298;2023-06-22T00:13:15;101467.53;;;20.97;45.34
24422;BME280;12600;53.326;-6.298;2023-06-22T00:16:06;101472.56;;;20.91;45.34
24422;BME280;12600;53.326;-6.298;2023-06-22T00:18:56;101472.03;;;20.86;45.60
24422;BME280;12600;53.326;-6.298;2023-06-22T00:21:48;101482.50;;;20.77;45.41
24422;BME280;12600;53.326;-6.298;2023-06-22T00:24:40;101465.31;;;20.71;45.62
24422;BME280;12600;53.326;-6.298;2023-06-22T00:27:30;101471.50;;;20.64;45.82
24422;BME280;12600;53.326;-6.298;2023-06-22T00:30:20;101472.56;;;20.60;46.05
24422;BME280;12600;53.326;-6.298;2023-06-22T00:33:11;101466.91;;;20.56;46.01
24422;BME280;12600;53.326;-6.298;2023-06-22T00:36:01;101469.25;;;20.54;46.27
24422;BME280;12600;53.326;-6.298;2023-06-22T00:38:51;101469.94;;;20.51;46.50
24422;BME280;12600;53.326;-6.298;2023-06-22T00:41:40;101463.28;;;20.40;46.71
24422;BME280;12600;53.326;-6.298;2023-06-22T00:44:29;101468.72;;;20.36;46.83
24422;BME280;12600;53.326;-6.298;2023-06-22T00:47:19;101477.41;;;20.35;47.14
24422;BME280;12600;53.326;-6.298;2023-06-22T00:50:17;101488.81;;;20.30;47.59
24422;BME280;12600;53.326;-6.298;2023-06-22T00:53:09;101482.69;;;20.24;47.87
24422;BME280;12600;53.326;-6.298;2023-06-22T00:55:59;101487.97;;;20.14;48.61
24422;BME280;12600;53.326;-6.298;2023-06-22T00:58:51;101489.59;;;20.02;48.55
24422;BME280;12600;53.326;-6.298;2023-06-22T01:01:42;101490.75;;;20.01;49.03
24422;BME280;12600;53.326;-6.298;2023-06-22T01:04:36;101490.91;;;19.93;49.60
24422;BME280;12600;53.326;-6.298;2023-06-22T01:07:35;101496.00;;;19.91;49.69
24422;BME280;12600;53.326;-6.298;2023-06-22T01:10:34;101493.84;;;19.84;50.20
24422;BME280;12600;53.326;-6.298;2023-06-22T01:13:30;101502.16;;;19.84;50.45
24422;BME280;12600;53.326;-6.298;2023-06-22T01:16:25;101501.13;;;19.76;50.44
24422;BME280;12600;53.326;-6.298;2023-06-22T01:19:26;101487.91;;;19.58;51.30
24422;BME280;12600;53.326;-6.298;2023-06-22T01:22:18;101503.13;;;19.51;51.32
24422;BME280;12600;53.326;-6.298;2023-06-22T01:25:18;101496.44;;;19.40;51.63
24422;BME280;12600;53.326;-6.298;2023-06-22T01:31:17;101512.16;;;19.36;52.40
24422;BME280;12600;53.326;-6.298;2023-06-22T01:34:09;101506.16;;;19.34;52.64
24422;BME280;12600;53.326;-6.298;2023-06-22T01:36:59;101516.31;;;19.30;52.79
24422;BME280;12600;53.326;-6.298;2023-06-22T01:39:50;101518.28;;;19.29;53.11
24422;BME280;12600;53.326;-6.298;2023-06-22T01:42:40;101511.47;;;19.27;53.33
24422;BME280;12600;53.326;-6.298;2023-06-22T01:45:31;101521.50;;;19.32;53.43
24422;BME280;12600;53.326;-6.298;2023-06-22T01:48:22;101519.06;;;19.30;53.11
24422;BME280;12600;53.326;-6.298;2023-06-22T01:51:11;101521.41;;;19.28;53.55
24422;BME280;12600;53.326;-6.298;2023-06-22T01:54:01;101517.22;;;19.22;53.76
24422;BME280;12600;53.326;-6.298;2023-06-22T01:56:51;101528.75;;;19.24;53.81
24422;BME280;12600;53.326;-6.298;2023-06-22T01:59:48;101521.88;;;19.18;53.91
24422;BME280;12600;53.326;-6.298;2023-06-22T02:02:48;101526.34;;;19.22;54.13
24422;BME280;12600;53.326;-6.298;2023-06-22T02:05:50;101526.13;;;19.15;54.35
24422;BME280;12600;53.326;-6.298;2023-06-22T02:08:47;101531.09;;;19.22;54.24
24422;BME280;12600;53.326;-6.298;2023-06-22T02:11:42;101527.72;;;19.16;54.28
24422;BME280;12600;53.326;-6.298;2023-06-22T02:14:33;101535.00;;;19.21;54.22
24422;BME280;12600;53.326;-6.298;2023-06-22T02:17:24;101539.03;;;19.23;54.32
24422;BME280;12600;53.326;-6.298;2023-06-22T02:20:14;101536.63;;;19.22;54.48
24422;BME280;12600;53.326;-6.298;2023-06-22T02:23:06;101536.84;;;19.17;54.47
24422;BME280;12600;53.326;-6.298;2023-06-22T02:25:56;101538.25;;;19.23;54.52
24422;BME280;12600;53.326;-6.298;2023-06-22T02:28:45;101535.81;;;19.21;54.46
24422;BME280;12600;53.326;-6.298;2023-06-22T02:31:37;101541.81;;;19.23;54.88
24422;BME280;12600;53.326;-6.298;2023-06-22T02:34:27;101554.75;;;19.19;55.03
24422;BME280;12600;53.326;-6.298;2023-06-22T02:37:17;101547.38;;;19.11;55.18
24422;BME280;12600;53.326;-6.298;2023-06-22T02:40:09;101552.78;;;19.08;55.39
24422;BME280;12600;53.326;-6.298;2023-06-22T02:42:59;101484.53;;;18.66;55.44
24422;BME280;12600;53.326;-6.298;2023-06-22T02:45:51;101552.22;;;19.02;55.52
24422;BME280;12600;53.326;-6.298;2023-06-22T02:48:41;101548.38;;;18.94;55.61
24422;BME280;12600;53.326;-6.298;2023-06-22T02:51:34;101553.69;;;18.87;55.82
24422;BME280;12600;53.326;-6.298;2023-06-22T02:54:23;101555.84;;;18.82;55.75
24422;BME280;12600;53.326;-6.298;2023-06-22T02:57:16;101558.16;;;18.80;55.48
24422;BME280;12600;53.326;-6.298;2023-06-22T03:00:07;101547.66;;;18.73;55.69
24422;BME280;12600;53.326;-6.298;2023-06-22T03:03:06;101554.59;;;18.79;55.89
24422;BME280;12600;53.326;-6.298;2023-06-22T03:05:56;101561.84;;;18.71;56.23
24422;BME280;12600;53.326;-6.298;2023-06-22T03:08:45;101559.59;;;18.65;56.31
24422;BME280;12600;53.326;-6.298;2023-06-22T03:11:35;101556.56;;;18.58;56.44
24422;BME280;12600;53.326;-6.298;2023-06-22T03:14:26;101558.88;;;18.56;56.44
24422;BME280;12600;53.326;-6.298;2023-06-22T03:17:15;101565.06;;;18.53;56.62
24422;BME280;12600;53.326;-6.298;2023-06-22T03:20:06;101563.19;;;18.44;57.05
24422;BME280;12600;53.326;-6.298;2023-06-22T03:22:57;101564.50;;;18.47;57.23
24422;BME280;12600;53.326;-6.298;2023-06-22T03:25:48;101559.16;;;18.42;57.43
24422;BME280;12600;53.326;-6.298;2023-06-22T03:28:37;101562.97;;;18.37;57.35
24422;BME280;12600;53.326;-6.298;2023-06-22T03:31:29;101556.22;;;18.26;57.58
24422;BME280;12600;53.326;-6.298;2023-06-22T03:34:19;101568.44;;;18.25;58.13
24422;BME280;12600;53.326;-6.298;2023-06-22T03:37:13;101565.94;;;18.11;58.24
24422;BME280;12600;53.326;-6.298;2023-06-22T03:40:05;101566.00;;;18.03;58.74
24422;BME280;12600;53.326;-6.298;2023-06-22T03:42:55;101567.38;;;17.97;58.90
24422;BME280;12600;53.326;-6.298;2023-06-22T03:45:45;101564.00;;;17.91;59.03
24422;BME280;12600;53.326;-6.298;2023-06-22T03:48:38;101568.91;;;17.85;59.58
24422;BME280;12600;53.326;-6.298;2023-06-22T03:51:28;101571.56;;;17.82;59.31
24422;BME280;12600;53.326;-6.298;2023-06-22T03:54:17;101575.94;;;17.83;59.35
24422;BME280;12600;53.326;-6.298;2023-06-22T03:57:07;101571.84;;;17.80;59.56
24422;BME280;12600;53.326;-6.298;2023-06-22T03:59:57;101562.97;;;17.75;59.60
24422;BME280;12600;53.326;-6.298;2023-06-22T04:02:46;101565.06;;;17.78;59.71
24422;BME280;12600;53.326;-6.298;2023-06-22T04:05:38;101581.00;;;17.81;60.16
24422;BME280;12600;53.326;-6.298;2023-06-22T04:08:28;101578.06;;;17.77;60.01
24422;BME280;12600;53.326;-6.298;2023-06-22T04:11:17;101569.97;;;17.72;60.15
24422;BME280;12600;53.326;-6.298;2023-06-22T04:14:06;101567.72;;;17.66;60.27
24422;BME280;12600;53.326;-6.298;2023-06-22T04:16:56;101586.06;;;17.70;60.64
24422;BME280;12600;53.326;-6.298;2023-06-22T04:19:45;101588.34;;;17.68;60.77
24422;BME280;12600;53.326;-6.298;2023-06-22T04:22:36;101582.00;;;17.68;61.05
24422;BME280;12600;53.326;-6.298;2023-06-22T04:25:25;101580.06;;;17.68;60.79
24422;BME280;12600;53.326;-6.298;2023-06-22T04:28:14;101590.47;;;17.71;60.97
24422;BME280;12600;53.326;-6.298;2023-06-22T04:31:04;101595.69;;;17.73;61.12
24422;BME280;12600;53.326;-6.298;2023-06-22T04:33:54;101585.75;;;17.72;61.06
24422;BME280;12600;53.326;-6.298;2023-06-22T04:36:43;101591.44;;;17.75;60.82
24422;BME280;12600;53.326;-6.298;2023-06-22T04:39:34;101591.88;;;17.77;60.88
24422;BME280;12600;53.326;-6.298;2023-06-22T04:42:26;101594.31;;;17.79;60.64
24422;BME280;12600;53.326;-6.298;2023-06-22T04:45:15;101598.97;;;17.87;60.69
24422;BME280;12600;53.326;-6.298;2023-06-22T04:48:05;101593.78;;;17.85;60.72
24422;BME280;12600;53.326;-6.298;2023-06-22T04:50:56;101598.44;;;17.94;61.01
24422;BME280;12600;53.326;-6.298;2023-06-22T04:53:50;101599.59;;;17.93;61.14
24422;BME280;12600;53.326;-6.298;2023-06-22T04:56:41;101605.88;;;18.02;61.25
24422;BME280;12600;53.326;-6.298;2023-06-22T04:59:31;101601.16;;;18.02;61.12
24422;BME280;12600;53.326;-6.298;2023-06-22T05:02:21;101607.56;;;18.15;61.10
24422;BME280;12600;53.326;-6.298;2023-06-22T05:05:11;101599.88;;;18.21;60.78
24422;BME280;12600;53.326;-6.298;2023-06-22T05:08:02;101605.09;;;18.22;61.02
24422;BME280;12600;53.326;-6.298;2023-06-22T05:10:54;101608.16;;;18.21;61.16
24422;BME280;12600;53.326;-6.298;2023-06-22T05:13:54;101596.50;;;18.15;61.26
24422;BME280;12600;53.326;-6.298;2023-06-22T05:16:44;101598.31;;;18.11;61.24
24422;BME280;12600;53.326;-6.298;2023-06-22T05:19:34;101613.56;;;18.17;61.43
24422;BME280;12600;53.326;-6.298;2023-06-22T05:22:23;101619.09;;;18.17;61.35
24422;BME280;12600;53.326;-6.298;2023-06-22T05:25:13;101621.88;;;18.17;61.14
24422;BME280;12600;53.326;-6.298;2023-06-22T05:28:03;101625.31;;;18.14;61.54
24422;BME280;12600;53.326;-6.298;2023-06-22T05:31:01;101623.81;;;18.16;61.42
24422;BME280;12600;53.326;-6.298;2023-06-22T05:33:52;101623.50;;;18.18;61.56
24422;BME280;12600;53.326;-6.298;2023-06-22T05:36:42;101621.34;;;18.24;61.39
24422;BME280;12600;53.326;-6.298;2023-06-22T05:39:32;101621.00;;;18.25;61.41
24422;BME280;12600;53.326;-6.298;2023-06-22T05:42:21;101620.91;;;18.34;61.56
24422;BME280;12600;53.326;-6.298;2023-06-22T05:45:11;101616.34;;;18.38;61.39
24422;BME280;12600;53.326;-6.298;2023-06-22T05:48:02;101619.03;;;18.47;61.42
24422;BME280;12600;53.326;-6.298;2023-06-22T05:50:51;101622.38;;;18.52;61.54
24422;BME280;12600;53.326;-6.298;2023-06-22T05:53:41;101626.22;;;18.60;61.51
24422;BME280;12600;53.326;-6.298;2023-06-22T05:56:30;101616.91;;;18.64;61.60
24422;BME280;12600;53.326;-6.298;2023-06-22T05:59:20;101609.41;;;18.65;61.60
24422;BME280;12600;53.326;-6.298;2023-06-22T06:02:09;101610.97;;;18.75;61.79
24422;BME280;12600;53.326;-6.298;2023-06-22T06:05:00;101619.06;;;18.80;61.89
24422;BME280;12600;53.326;-6.298;2023-06-22T06:07:51;101615.25;;;18.84;62.05
24422;BME280;12600;53.326;-6.298;2023-06-22T06:10:40;101623.03;;;18.91;62.41
24422;BME280;12600;53.326;-6.298;2023-06-22T06:13:30;101620.38;;;18.94;62.63
24422;BME280;12600;53.326;-6.298;2023-06-22T06:16:19;101615.09;;;19.02;62.74
24422;BME280;12600;53.326;-6.298;2023-06-22T06:19:09;101589.78;;;18.91;62.95
24422;BME280;12600;53.326;-6.298;2023-06-22T06:21:59;101620.91;;;19.21;63.44
24422;BME280;12600;53.326;-6.298;2023-06-22T06:24:49;101625.19;;;19.31;63.70
24422;BME280;12600;53.326;-6.298;2023-06-22T06:27:38;101614.22;;;19.34;63.85
24422;BME280;12600;53.326;-6.298;2023-06-22T06:30:28;101622.88;;;19.45;64.50
24422;BME280;12600;53.326;-6.298;2023-06-22T06:33:18;101618.50;;;19.56;64.45
24422;BME280;12600;53.326;-6.298;2023-06-22T06:36:12;101612.19;;;19.68;64.60
24422;BME280;12600;53.326;-6.298;2023-06-22T06:39:02;101612.84;;;19.77;64.90
24422;BME280;12600;53.326;-6.298;2023-06-22T06:41:53;101604.53;;;19.77;66.02
24422;BME280;12600;53.326;-6.298;2023-06-22T06:44:43;101621.19;;;19.89;66.02
24422;BME280;12600;53.326;-6.298;2023-06-22T06:47:32;101614.94;;;19.92;66.04
24422;BME280;12600;53.326;-6.298;2023-06-22T06:50:22;101617.47;;;19.97;65.80
24422;BME280;12600;53.326;-6.298;2023-06-22T06:53:11;101629.19;;;20.19;66.44
24422;BME280;12600;53.326;-6.298;2023-06-22T06:56:02;101626.88;;;20.21;66.59
24422;BME280;12600;53.326;-6.298;2023-06-22T06:58:53;101619.38;;;20.21;66.87
24422;BME280;12600;53.326;-6.298;2023-06-22T07:01:43;101619.91;;;20.27;66.75
24422;BME280;12600;53.326;-6.298;2023-06-22T07:04:33;101635.38;;;20.40;66.82
24422;BME280;12600;53.326;-6.298;2023-06-22T07:07:22;101636.78;;;20.46;66.79
24422;BME280;12600;53.326;-6.298;2023-06-22T07:10:12;101634.91;;;20.50;66.71
24422;BME280;12600;53.326;-6.298;2023-06-22T07:13:03;101631.97;;;20.59;66.81
24422;BME280;12600;53.326;-6.298;2023-06-22T07:15:52;101640.16;;;20.67;66.79
24422;BME280;12600;53.326;-6.298;2023-06-22T07:18:41;101640.56;;;20.82;66.79
24422;BME280;12600;53.326;-6.298;2023-06-22T07:21:31;101625.94;;;20.85;66.62
24422;BME280;12600;53.326;-6.298;2023-06-22T07:24:20;101625.91;;;20.97;66.41
24422;BME280;12600;53.326;-6.298;2023-06-22T07:27:10;101630.56;;;21.09;66.29
24422;BME280;12600;53.326;-6.298;2023-06-22T07:30:02;101636.06;;;21.21;66.07
24422;BME280;12600;53.326;-6.298;2023-06-22T07:32:51;101632.31;;;21.29;65.91
24422;BME280;12600;53.326;-6.298;2023-06-22T07:35:41;101636.34;;;21.32;65.09
24422;BME280;12600;53.326;-6.298;2023-06-22T07:38:30;101631.53;;;21.29;64.63
24422;BME280;12600;53.326;-6.298;2023-06-22T07:41:19;101636.81;;;21.34;63.86
24422;BME280;12600;53.326;-6.298;2023-06-22T07:44:09;101646.31;;;21.33;63.10
24422;BME280;12600;53.326;-6.298;2023-06-22T07:47:00;101644.44;;;21.37;62.72
24422;BME280;12600;53.326;-6.298;2023-06-22T07:49:49;101642.81;;;21.52;63.01
24422;BME280;12600;53.326;-6.298;2023-06-22T07:52:39;101648.56;;;21.59;61.79
24422;BME280;12600;53.326;-6.298;2023-06-22T07:55:28;101639.09;;;21.79;61.34
24422;BME280;12600;53.326;-6.298;2023-06-22T07:58:18;101645.06;;;22.13;61.13
24422;BME280;12600;53.326;-6.298;2023-06-22T08:01:08;101646.50;;;22.42;61.32
24422;BME280;12600;53.326;-6.298;2023-06-22T08:04:00;101653.31;;;22.83;61.67
24422;BME280;12600;53.326;-6.298;2023-06-22T08:06:49;101657.59;;;23.19;58.75
24422;BME280;12600;53.326;-6.298;2023-06-22T08:09:47;101654.66;;;23.58;56.79
24422;BME280;12600;53.326;-6.298;2023-06-22T08:12:37;101656.16;;;24.01;58.60
24422;BME280;12600;53.326;-6.298;2023-06-22T08:15:26;101656.25;;;24.35;55.88
24422;BME280;12600;53.326;-6.298;2023-06-22T08:18:16;101651.28;;;24.51;52.50
24422;BME280;12600;53.326;-6.298;2023-06-22T08:21:07;101639.47;;;24.65;50.57
24422;BME280;12600;53.326;-6.298;2023-06-22T08:23:57;101646.63;;;24.99;50.58
24422;BME280;12600;53.326;-6.298;2023-06-22T08:26:46;101671.06;;;25.43;50.67
24422;BME280;12600;53.326;-6.298;2023-06-22T08:29:36;101668.56;;;25.75;49.11
24422;BME280;12600;53.326;-6.298;2023-06-22T08:32:25;101664.28;;;25.92;47.44
24422;BME280;12600;53.326;-6.298;2023-06-22T08:35:15;101666.34;;;26.02;46.33
24422;BME280;12600;53.326;-6.298;2023-06-22T08:38:06;101669.66;;;26.22;46.06
24422;BME280;12600;53.326;-6.298;2023-06-22T08:40:56;101657.78;;;26.43;46.14
24422;BME280;12600;53.326;-6.298;2023-06-22T08:43:46;101667.84;;;26.55;44.55
24422;BME280;12600;53.326;-6.298;2023-06-22T08:46:35;101665.91;;;26.69;44.97
24422;BME280;12600;53.326;-6.298;2023-06-22T08:49:26;101663.53;;;26.86;44.10
24422;BME280;12600;53.326;-6.298;2023-06-22T08:52:18;101666.03;;;27.05;43.79
24422;BME280;12600;53.326;-6.298;2023-06-22T08:55:10;101662.84;;;27.14;43.41
24422;BME280;12600;53.326;-6.298;2023-06-22T08:57:59;101664.84;;;27.13;42.50
24422;BME280;12600;53.326;-6.298;2023-06-22T09:00:49;101660.44;;;27.26;42.19
24422;BME280;12600;53.326;-6.298;2023-06-22T09:03:39;101669.28;;;27.50;42.14
24422;BME280;12600;53.326;-6.298;2023-06-22T09:06:29;101667.72;;;27.70;42.09
24422;BME280;12600;53.326;-6.298;2023-06-22T09:09:21;101677.69;;;27.64;41.54
24422;BME280;12600;53.326;-6.298;2023-06-22T09:12:12;101683.75;;;27.70;40.80
24422;BME280;12600;53.326;-6.298;2023-06-22T09:15:01;101678.13;;;27.84;40.53
24422;BME280;12600;53.326;-6.298;2023-06-22T09:17:53;101681.72;;;27.88;39.52
24422;BME280;12600;53.326;-6.298;2023-06-22T09:20:44;101682.13;;;27.86;39.45
24422;BME280;12600;53.326;-6.298;2023-06-22T09:23:34;101679.72;;;27.81;39.36
24422;BME280;12600;53.326;-6.298;2023-06-22T09:26:23;101685.72;;;28.05;39.41
24422;BME280;12600;53.326;-6.298;2023-06-22T09:29:14;101674.06;;;28.10;38.65
24422;BME280;12600;53.326;-6.298;2023-06-22T09:32:05;101667.19;;;28.22;38.42
24422;BME280;12600;53.326;-6.298;2023-06-22T09:34:54;101669.22;;;28.14;38.46
24422;BME280;12600;53.326;-6.298;2023-06-22T09:37:44;101666.78;;;28.30;38.65
24422;BME280;12600;53.326;-6.298;2023-06-22T09:40:33;101659.47;;;28.54;38.42
24422;BME280;12600;53.326;-6.298;2023-06-22T09:43:28;101654.91;;;28.89;38.54
24422;BME280;12600;53.326;-6.298;2023-06-22T09:46:19;101661.56;;;29.20;37.76
24422;BME280;12600;53.326;-6.298;2023-06-22T09:49:09;101651.09;;;29.17;36.87
24422;BME280;12600;53.326;-6.298;2023-06-22T09:51:59;101653.03;;;29.27;36.50
24422;BME280;12600;53.326;-6.298;2023-06-22T09:54:48;101666.22;;;29.41;36.30
24422;BME280;12600;53.326;-6.298;2023-06-22T09:57:38;101659.03;;;29.36;35.26
24422;BME280;12600;53.326;-6.298;2023-06-22T10:00:27;101661.06;;;29.32;35.38
24422;BME280;12600;53.326;-6.298;2023-06-22T10:03:18;101664.81;;;29.15;34.92
24422;BME280;12600;53.326;-6.298;2023-06-22T10:06:08;101668.88;;;29.07;35.22
24422;BME280;12600;53.326;-6.298;2023-06-22T10:08:57;101674.88;;;29.09;35.38
24422;BME280;12600;53.326;-6.298;2023-06-22T10:11:47;101668.91;;;29.00;35.13
24422;BME280;12600;53.326;-6.298;2023-06-22T10:14:36;101667.28;;;29.06;35.23
24422;BME280;12600;53.326;-6.298;2023-06-22T10:17:26;101664.81;;;29.15;35.28
24422;BME280;12600;53.326;-6.298;2023-06-22T10:20:16;101659.50;;;29.24;35.25
24422;BME280;12600;53.326;-6.298;2023-06-22T10:23:06;101678.63;;;29.50;35.23
24422;BME280;12600;53.326;-6.298;2023-06-22T10:25:55;101678.16;;;29.59;34.94
24422;BME280;12600;53.326;-6.298;2023-06-22T10:28:46;101667.56;;;29.74;34.54
24422;BME280;12600;53.326;-6.298;2023-06-22T10:31:35;101669.13;;;29.78;34.67
24422;BME280;12600;53.326;-6.298;2023-06-22T10:34:25;101675.56;;;29.79;34.37
24422;BME280;12600;53.326;-6.298;2023-06-22T10:37:16;101673.31;;;29.60;34.09
24422;BME280;12600;53.326;-6.298;2023-06-22T10:40:07;101676.34;;;29.31;33.91
24422;BME280;12600;53.326;-6.298;2023-06-22T10:42:57;101674.41;;;29.17;34.32
24422;BME280;12600;53.326;-6.298;2023-06-22T10:45:46;101678.44;;;29.20;34.24
24422;BME280;12600;53.326;-6.298;2023-06-22T10:48:36;101682.59;;;28.94;34.60
24422;BME280;12600;53.326;-6.298;2023-06-22T10:51:25;101684.66;;;28.79;34.69
24422;BME280;12600;53.326;-6.298;2023-06-22T10:54:17;101678.78;;;28.56;34.74
24422;BME280;12600;53.326;-6.298;2023-06-22T10:57:07;101674.72;;;28.64;35.07
24422;BME280;12600;53.326;-6.298;2023-06-22T10:59:56;101677.91;;;28.66;34.88
24422;BME280;12600;53.326;-6.298;2023-06-22T11:02:46;101688.34;;;28.73;34.72
24422;BME280;12600;53.326;-6.298;2023-06-22T11:05:35;101687.09;;;28.77;35.65
24422;BME280;12600;53.326;-6.298;2023-06-22T11:08:25;101694.69;;;28.91;35.70
24422;BME280;12600;53.326;-6.298;2023-06-22T11:11:16;101681.81;;;28.93;36.25
24422;BME280;12600;53.326;-6.298;2023-06-22T11:14:06;101693.84;;;28.97;36.28
24422;BME280;12600;53.326;-6.298;2023-06-22T11:16:55;101689.84;;;28.95;36.14
24422;BME280;12600;53.326;-6.298;2023-06-22T11:19:45;101683.03;;;28.85;36.19
24422;BME280;12600;53.326;-6.298;2023-06-22T11:22:35;101688.19;;;29.01;36.52
24422;BME280;12600;53.326;-6.298;2023-06-22T11:25:24;101699.38;;;29.15;36.66
24422;BME280;12600;53.326;-6.298;2023-06-22T11:28:15;101689.63;;;29.31;36.40
24422;BME280;12600;53.326;-6.298;2023-06-22T11:31:04;101689.28;;;29.18;36.20
24422;BME280;12600;53.326;-6.298;2023-06-22T11:34:12;101694.28;;;28.89;37.30
24422;BME280;12600;53.326;-6.298;2023-06-22T11:37:02;101683.03;;;28.85;37.76
24422;BME280;12600;53.326;-6.298;2023-06-22T11:39:51;101687.44;;;28.97;37.91
24422;BME280;12600;53.326;-6.298;2023-06-22T11:42:53;101681.94;;;28.65;37.43
24422;BME280;12600;53.326;-6.298;2023-06-22T11:45:44;101691.88;;;28.84;37.69
24422;BME280;12600;53.326;-6.298;2023-06-22T11:48:34;101691.47;;;28.96;37.59
24422;BME280;12600;53.326;-6.298;2023-06-22T11:51:24;101692.09;;;29.18;37.36
24422;BME280;12600;53.326;-6.298;2023-06-22T11:54:13;101690.22;;;29.60;37.31
24422;BME280;12600;53.326;-6.298;2023-06-22T11:57:04;101682.66;;;29.46;36.19
24422;BME280;12600;53.326;-6.298;2023-06-22T11:59:53;101680.75;;;29.32;36.68
24422;BME280;12600;53.326;-6.298;2023-06-22T12:02:44;101694.50;;;29.23;37.00
24422;BME280;12600;53.326;-6.298;2023-06-22T12:05:34;101699.88;;;29.00;37.36
24422;BME280;12600;53.326;-6.298;2023-06-22T12:08:23;101693.66;;;29.26;37.41
24422;BME280;12600;53.326;-6.298;2023-06-22T12:11:13;101690.38;;;29.38;37.17
24422;BME280;12600;53.326;-6.298;2023-06-22T12:14:02;101695.03;;;29.59;37.16
24422;BME280;12600;53.326;-6.298;2023-06-22T12:16:52;101689.19;;;29.32;36.95
24422;BME280;12600;53.326;-6.298;2023-06-22T12:19:43;101690.78;;;29.33;36.52
24422;BME280;12600;53.326;-6.298;2023-06-22T12:22:32;101694.34;;;29.44;36.83
24422;BME280;12600;53.326;-6.298;2023-06-22T12:25:22;101688.59;;;29.62;36.69
24422;BME280;12600;53.326;-6.298;2023-06-22T12:28:12;101689.28;;;29.73;36.26
24422;BME280;12600;53.326;-6.298;2023-06-22T12:31:01;101692.59;;;29.65;36.25
24422;BME280;12600;53.326;-6.298;2023-06-22T12:33:51;101686.34;;;29.88;36.02
24422;BME280;12600;53.326;-6.298;2023-06-22T12:36:41;101679.97;;;29.80;35.76
24422;BME280;12600;53.326;-6.298;2023-06-22T12:39:31;101687.34;;;30.12;35.60
24422;BME280;12600;53.326;-6.298;2023-06-22T12:42:20;101695.94;;;30.35;35.31
24422;BME280;12600;53.326;-6.298;2023-06-22T12:45:10;101694.56;;;30.50;34.68
24422;BME280;12600;53.326;-6.298;2023-06-22T12:47:59;101686.75;;;30.61;34.66
24422;BME280;12600;53.326;-6.298;2023-06-22T12:50:49;101694.53;;;30.84;34.40
24422;BME280;12600;53.326;-6.298;2023-06-22T12:53:41;101691.72;;;31.11;33.87
24422;BME280;12600;53.326;-6.298;2023-06-22T12:56:32;101690.41;;;31.19;33.44
24422;BME280;12600;53.326;-6.298;2023-06-22T12:59:21;101682.84;;;31.13;32.72
24422;BME280;12600;53.326;-6.298;2023-06-22T13:02:11;101679.81;;;31.27;32.91
24422;BME280;12600;53.326;-6.298;2023-06-22T13:05:02;101676.56;;;31.02;33.32
24422;BME280;12600;53.326;-6.298;2023-06-22T13:07:52;101672.22;;;30.94;33.76
24422;BME280;12600;53.326;-6.298;2023-06-22T13:10:44;101683.06;;;30.99;33.86
24422;BME280;12600;53.326;-6.298;2023-06-22T13:13:33;101685.03;;;31.02;33.85
24422;BME280;12600;53.326;-6.298;2023-06-22T13:16:23;101682.88;;;31.09;33.17
24422;BME280;12600;53.326;-6.298;2023-06-22T13:19:12;101676.56;;;31.02;33.58
24422;BME280;12600;53.326;-6.298;2023-06-22T13:22:02;101675.50;;;30.92;34.52
24422;BME280;12600;53.326;-6.298;2023-06-22T13:24:52;101665.25;;;30.75;34.65
24422;BME280;12600;53.326;-6.298;2023-06-22T13:27:44;101674.31;;;30.59;35.47
24422;BME280;12600;53.326;-6.298;2023-06-22T13:30:34;101675.25;;;30.49;35.80
24422;BME280;12600;53.326;-6.298;2023-06-22T13:33:23;101654.59;;;30.55;36.33
24422;BME280;12600;53.326;-6.298;2023-06-22T13:36:12;101663.75;;;30.63;36.04
24422;BME280;12600;53.326;-6.298;2023-06-22T13:39:02;101641.59;;;30.65;36.17
24422;BME280;12600;53.326;-6.298;2023-06-22T13:41:51;101659.25;;;30.73;35.86
24422;BME280;12600;53.326;-6.298;2023-06-22T13:44:44;101652.06;;;30.64;36.06
24422;BME280;12600;53.326;-6.298;2023-06-22T13:47:33;101663.53;;;30.50;36.32
24422;BME280;12600;53.326;-6.298;2023-06-22T13:50:23;101657.34;;;30.28;36.59
24422;BME280;12600;53.326;-6.298;2023-06-22T13:53:12;101662.69;;;30.53;36.81
24422;BME280;12600;53.326;-6.298;2023-06-22T13:56:01;101651.66;;;30.66;36.94
24422;BME280;12600;53.326;-6.298;2023-06-22T13:58:51;101648.81;;;30.97;35.71
24422;BME280;12600;53.326;-6.298;2023-06-22T14:01:41;101639.50;;;31.00;35.16
24422;BME280;12600;53.326;-6.298;2023-06-22T14:04:31;101649.53;;;31.04;34.81
24422;BME280;12600;53.326;-6.298;2023-06-22T14:07:21;101644.88;;;30.60;35.02
24422;BME280;12600;53.326;-6.298;2023-06-22T14:10:12;101648.28;;;30.44;35.82
24422;BME280;12600;53.326;-6.298;2023-06-22T14:13:01;101646.13;;;30.25;36.44
24422;BME280;12600;53.326;-6.298;2023-06-22T14:15:53;101640.19;;;29.74;36.74
24422;BME280;12600;53.326;-6.298;2023-06-22T14:18:45;101641.75;;;29.79;37.36
24422;BME280;12600;53.326;-6.298;2023-06-22T14:21:34;101643.72;;;29.82;37.46
24422;BME280;12600;53.326;-6.298;2023-06-22T14:24:24;101645.13;;;30.08;37.71
24422;BME280;12600;53.326;-6.298;2023-06-22T14:27:17;101647.75;;;30.22;38.02
24422;BME280;12600;53.326;-6.298;2023-06-22T14:30:07;101638.59;;;30.45;37.58
24422;BME280;12600;53.326;-6.298;2023-06-22T14:32:57;101649.25;;;30.34;37.18
24422;BME280;12600;53.326;-6.298;2023-06-22T14:35:48;101647.88;;;30.12;37.85
24422;BME280;12600;53.326;-6.298;2023-06-22T14:38:37;101648.16;;;29.83;38.19
24422;BME280;12600;53.326;-6.298;2023-06-22T14:41:29;101640.84;;;29.44;38.42
24422;BME280;12600;53.326;-6.298;2023-06-22T14:44:18;101655.84;;;29.27;39.00